Time;durP1;ratioP1;P1;durP2;ratioP2;P2;SDS_P1;SDS_P2;PMS_P1;PMS_P2;Temp;Humidity;BMP_temperature;BMP_pressure;BME280_temperature;BME280_humidity;BME280_pressure;Samples;Min_cycle;Max_cycle;Signal;HPM_P1;HPM_P2
2022/12/16 00:00:15;;;;;;;56.50;22.83;;;-4.00;99.90;;;;;;5049311;28;20471;-80
2022/12/16 00:02:41;;;;;;;51.03;23.85;;;-4.00;99.90;;;;;;5052996;28;20033;-80
2022/12/16 00:05:07;;;;;;;54.17;24.85;;;-4.00;99.90;;;;;;5035254;28;20516;-80
2022/12/16 00:07:33;;;;;;;58.78;24.90;;;-4.00;99.90;;;;;;5053110;28;20045;-79
2022/12/16 00:09:59;;;;;;;63.28;26.33;;;-4.00;99.90;;;;;;5035036;28;20028;-83
2022/12/16 00:12:25;;;;;;;55.60;24.25;;;-4.00;99.90;;;;;;5051788;28;20115;-83
2022/12/16 00:14:51;;;;;;;61.85;28.55;;;-3.90;99.90;;;;;;5053036;28;20479;-83
2022/12/16 00:17:17;;;;;;;54.53;24.42;;;-4.00;99.90;;;;;;5035006;28;20032;-85
2022/12/16 00:19:42;;;;;;;70.38;27.67;;;-4.00;99.90;;;;;;5051436;28;20017;-82
2022/12/16 00:22:08;;;;;;;68.75;26.85;;;-4.00;99.90;;;;;;5034865;28;20059;-84
2022/12/16 00:24:33;;;;;;;48.13;21.73;;;-4.00;99.90;;;;;;5051700;28;20024;-83
2022/12/16 00:26:59;;;;;;;66.10;27.95;;;-4.00;99.90;;;;;;5035022;28;20048;-83
2022/12/16 00:29:25;;;;;;;65.45;25.92;;;-4.00;99.90;;;;;;5035086;28;20053;-80
2022/12/16 00:31:50;;;;;;;63.05;27.48;;;-3.90;99.90;;;;;;5035039;28;20024;-80
2022/12/16 00:34:16;;;;;;;64.05;25.63;;;-4.00;99.90;;;;;;5034785;28;20435;-80
2022/12/16 00:36:42;;;;;;;62.60;26.67;;;-3.90;99.90;;;;;;5052849;28;20104;-81
2022/12/16 00:39:09;;;;;;;53.88;24.20;;;-4.00;99.90;;;;;;5048126;28;20387;-80
2022/12/16 00:41:35;;;;;;;61.13;24.92;;;-4.00;99.90;;;;;;5032637;28;20415;-82
2022/12/16 00:44:01;;;;;;;54.95;25.15;;;-3.90;99.90;;;;;;5032609;28;20057;-80
2022/12/16 00:46:27;;;;;;;66.55;26.58;;;-4.00;99.90;;;;;;5032869;28;20091;-83
2022/12/16 00:48:53;;;;;;;68.47;28.10;;;-4.00;99.90;;;;;;5032788;28;20483;-80
2022/12/16 00:51:19;;;;;;;66.63;26.95;;;-4.00;99.90;;;;;;5032953;28;20132;-82
2022/12/16 00:53:44;;;;;;;63.97;26.83;;;-4.00;99.90;;;;;;5032670;28;20025;-79
2022/12/16 00:56:13;;;;;;;55.95;24.77;;;-3.90;99.90;;;;;;5031545;28;20033;-83
2022/12/16 00:58:40;;;;;;;52.97;24.98;;;-3.90;99.90;;;;;;5031437;28;20033;-79
2022/12/16 01:01:07;;;;;;;61.05;28.10;;;-3.90;99.90;;;;;;5040825;28;20017;-81
2022/12/16 01:03:33;;;;;;;63.45;27.77;;;-3.90;99.90;;;;;;5034617;28;20040;-79
2022/12/16 01:05:59;;;;;;;68.50;29.48;;;-3.90;99.90;;;;;;5051297;28;20021;-82
2022/12/16 01:08:25;;;;;;;66.45;26.10;;;-3.90;99.90;;;;;;5051215;28;20020;-79
2022/12/16 01:10:56;;;;;;;70.45;27.08;;;-3.80;99.90;;;;;;5037301;28;20041;-80
2022/12/16 01:13:23;;;;;;;70.35;29.30;;;-3.90;99.90;;;;;;5056038;28;20029;-79
2022/12/16 01:15:49;;;;;;;63.35;27.25;;;-3.80;99.90;;;;;;5038037;28;20033;-79
2022/12/16 01:18:16;;;;;;;56.53;25.20;;;-3.80;99.90;;;;;;5038014;28;20047;-79
2022/12/16 01:20:41;;;;;;;69.65;29.85;;;-3.80;99.90;;;;;;5037918;28;20432;-79
2022/12/16 01:23:07;;;;;;;56.80;26.63;;;-3.80;99.90;;;;;;5054537;28;20127;-83
2022/12/16 01:25:32;;;;;;;73.72;29.45;;;-3.80;99.90;;;;;;5055831;28;20478;-83
2022/12/16 01:27:58;;;;;;;70.63;30.88;;;-3.90;99.90;;;;;;5055936;28;20029;-84
2022/12/16 01:30:24;;;;;;;58.25;24.15;;;-3.90;99.90;;;;;;5055888;28;20021;-82
2022/12/16 01:32:49;;;;;;;72.20;31.88;;;-3.90;99.90;;;;;;5054470;28;20017;-83
2022/12/16 01:35:16;;;;;;;79.18;30.65;;;-3.90;99.90;;;;;;5055673;28;20031;-80
2022/12/16 01:37:41;;;;;;;72.07;26.80;;;-3.90;99.90;;;;;;5037864;28;20475;-80
2022/12/16 01:40:15;;;;;;;82.60;34.90;;;-3.90;99.90;;;;;;5039696;28;20109;-80
2022/12/16 01:42:40;;;;;;;82.13;30.45;;;-3.90;99.90;;;;;;5017696;28;20534;-80
2022/12/16 01:45:32;;;;;;;65.13;28.05;;;-4.00;99.90;;;;;;5017776;28;20116;-80
2022/12/16 01:48:02;;;;;;;67.70;27.23;;;-4.00;99.90;;;;;;5017749;28;20032;-83
2022/12/16 01:50:28;;;;;;;82.18;30.58;;;-4.00;99.90;;;;;;5035455;28;20018;-80
2022/12/16 01:52:58;;;;;;;71.30;31.70;;;-4.00;99.90;;;;;;5017669;28;20034;-83
2022/12/16 01:55:31;;;;;;;91.68;35.33;;;-4.00;99.90;;;;;;5035368;28;20063;-83
2022/12/16 01:58:12;;;;;;;86.38;32.80;;;-3.90;99.90;;;;;;5017489;28;20112;-83
2022/12/16 02:00:39;;;;;;;67.25;30.33;;;-4.00;99.90;;;;;;5017490;28;20119;-84
2022/12/16 02:03:06;;;;;;;78.75;28.98;;;-4.00;99.90;;;;;;5017354;28;20071;-83
2022/12/16 02:05:34;;;;;;;72.03;31.55;;;-4.00;99.90;;;;;;5025621;28;20439;-81
2022/12/16 02:08:14;;;;;;;76.68;30.98;;;-4.00;99.90;;;;;;5017356;28;20021;-81
2022/12/16 02:10:43;;;;;;;63.00;26.52;;;-4.10;99.90;;;;;;5017189;28;20022;-83
2022/12/16 02:13:15;;;;;;;78.88;31.23;;;-4.10;99.90;;;;;;5034973;28;20101;-80
2022/12/16 02:15:42;;;;;;;78.72;33.92;;;-4.10;99.90;;;;;;5017172;28;20448;-82
2022/12/16 02:18:32;;;;;;;55.10;23.48;;;-4.10;99.90;;;;;;5017194;28;20028;-83
2022/12/16 02:21:15;;;;;;;65.00;26.90;;;-4.10;99.90;;;;;;5034441;28;20029;-82
2022/12/16 02:24:08;;;;;;;77.07;31.90;;;-4.10;99.90;;;;;;5016927;28;20033;-80
2022/12/16 02:27:11;;;;;;;60.80;27.35;;;-4.20;99.90;;;;;;5017164;28;20124;-80
2022/12/16 02:29:51;;;;;;;64.55;25.63;;;-4.20;99.90;;;;;;5017007;28;20541;-82
2022/12/16 02:32:37;;;;;;;76.97;31.05;;;-4.20;99.90;;;;;;5034785;28;20031;-83
2022/12/16 02:35:27;;;;;;;75.32;30.83;;;-4.20;99.90;;;;;;5034460;28;20033;-80
2022/12/16 02:38:31;;;;;;;87.53;35.42;;;-4.20;99.90;;;;;;5016918;28;20060;-82
2022/12/16 02:41:02;;;;;;;54.40;26.88;;;-4.20;99.90;;;;;;5013418;28;20030;-80
2022/12/16 02:43:47;;;;;;;65.78;26.25;;;-4.20;99.90;;;;;;5013338;28;20480;-83
2022/12/16 02:46:13;;;;;;;72.93;31.13;;;-4.30;99.90;;;;;;4997080;28;20610;-80
2022/12/16 02:48:38;;;;;;;77.45;30.80;;;-4.30;99.90;;;;;;5013343;28;20049;-80
2022/12/16 02:51:04;;;;;;;59.80;26.70;;;-4.30;99.90;;;;;;5013247;28;20108;-81
2022/12/16 02:53:33;;;;;;;71.90;29.08;;;-4.30;99.90;;;;;;4996860;28;20487;-80
2022/12/16 02:56:10;;;;;;;59.40;24.45;;;-4.30;99.90;;;;;;5013064;28;20507;-83
2022/12/16 02:59:36;;;;;;;68.43;25.42;;;-4.30;99.90;;;;;;5014386;28;20026;-80
2022/12/16 03:02:23;;;;;;;73.07;29.40;;;-4.30;99.90;;;;;;4969777;28;20030;-80
2022/12/16 03:05:00;;;;;;;55.38;25.05;;;-4.30;99.90;;;;;;5049516;28;20044;-81
2022/12/16 03:07:27;;;;;;;39.35;20.10;;;-4.30;99.90;;;;;;5052623;28;20089;-82
2022/12/16 03:09:55;;;;;;;59.65;25.15;;;-4.30;99.90;;;;;;5053794;28;20067;-79
2022/12/16 03:12:22;;;;;;;57.42;26.35;;;-4.30;99.90;;;;;;5053879;28;20087;-79
2022/12/16 03:14:51;;;;;;;59.28;23.48;;;-4.30;99.90;;;;;;5053731;28;20116;-82
2022/12/16 03:17:19;;;;;;;52.00;23.50;;;-4.30;99.90;;;;;;5035952;28;20059;-79
2022/12/16 03:19:58;;;;;;;57.88;23.00;;;-4.30;99.90;;;;;;5035860;28;20009;-79
2022/12/16 03:22:28;;;;;;;56.67;25.02;;;-4.20;99.90;;;;;;5035887;28;20024;-82
2022/12/16 03:24:54;;;;;;;52.67;23.20;;;-4.20;99.90;;;;;;5035731;28;20108;-82
2022/12/16 03:27:27;;;;;;;57.60;24.65;;;-4.20;99.90;;;;;;5052222;28;20040;-79
2022/12/16 03:30:18;;;;;;;56.75;25.17;;;-4.20;99.90;;;;;;5053409;28;20158;-79
2022/12/16 03:32:58;;;;;;;48.90;22.05;;;-4.20;99.90;;;;;;5034856;28;20060;-84
2022/12/16 03:35:41;;;;;;;55.00;24.60;;;-4.10;99.90;;;;;;5035334;28;20033;-79
2022/12/16 03:38:10;;;;;;;58.58;25.30;;;-4.10;99.90;;;;;;5053470;28;20028;-82
2022/12/16 03:40:38;;;;;;;51.65;23.88;;;-4.10;99.90;;;;;;5033262;28;20033;-82
2022/12/16 03:43:05;;;;;;;43.08;20.35;;;-4.10;99.90;;;;;;5012156;28;20133;-83
2022/12/16 03:45:42;;;;;;;43.97;21.35;;;-4.10;99.90;;;;;;5013676;28;20055;-82
2022/12/16 03:48:09;;;;;;;50.15;22.65;;;-4.10;99.90;;;;;;5012569;28;20440;-83
2022/12/16 03:50:37;;;;;;;45.20;19.88;;;-4.10;99.90;;;;;;5013377;28;20141;-83
2022/12/16 03:53:04;;;;;;;42.65;19.83;;;-4.10;99.90;;;;;;5012302;28;20026;-83
2022/12/16 03:55:29;;;;;;;45.38;21.58;;;-4.10;99.90;;;;;;5013557;28;20026;-82
2022/12/16 03:57:56;;;;;;;48.70;22.75;;;-4.10;99.90;;;;;;5012317;28;20018;-82
2022/12/16 04:00:22;;;;;;;45.40;20.05;;;-4.10;99.90;;;;;;5015165;28;20017;-83
2022/12/16 04:02:48;;;;;;;52.45;22.58;;;-4.00;99.90;;;;;;5033203;28;20044;-79
2022/12/16 04:05:14;;;;;;;44.35;21.38;;;-4.00;99.90;;;;;;5048509;28;20029;-79
2022/12/16 04:07:39;;;;;;;39.72;19.55;;;-4.00;99.90;;;;;;5032095;28;20026;-80
2022/12/16 04:10:06;;;;;;;49.35;23.95;;;-4.00;99.90;;;;;;5048338;28;20026;-83
2022/12/16 04:26:01;;;;;;;44.33;22.50;;;-3.90;99.90;;;;;;5033129;28;20633;-82
2022/12/16 04:28:27;;;;;;;39.85;19.20;;;-3.80;99.90;;;;;;5033210;28;20025;-82
2022/12/16 04:30:52;;;;;;;41.30;19.67;;;-3.80;99.90;;;;;;5033084;28;20036;-80
